Crossville, Tennessee
Current Conditions -  °F | °C
As of 11:53 PM on Tuesday 25 Nov 2014 (Local Time) from KCSV Reporting Station
Clear Clear  
Wind Chill: 34°   Ceiling: Unl
Heat Index: 40°   Visibility: 10mi
Dew Point: 28°   Wind: 8mph
Humidity: 63%   Direction: 340°NNW
Pressure: 30.07"   Gusts: NA
Location:  35.95°N, 85.03°W
Report Text: KCSV 260553Z AUTO 34007KT 10SM CLR 04/M02 A3007 RMK AO2 SLP183 T00441022 10083 20044 401221006 56012
Loading
Personal Weather Stations






























Interactive Weather Map New forecast layout! Learn more

10-Day Weather Forecast

Advertisements
Track Severe Weather on mobile